Terminal Aerodrome Forecast
Issued by NWS Jackson, MS

Home | Current Version | Previous Version | Text Only | Print | Product List | Glossary On
Versions: 1 2 3 4 5 6 7 8 9 10 11 12 13 14 15 16 17 18 19 20
000
FTUS44 KMEG 281120
TAFTUP
TAF
KTUP 281120Z 2812/2912 00000KT 6SM BR BKN035
      TEMPO 2813/2817 3SM BR BKN020
     FM281900 01004KT P6SM SCT035 BKN100
     FM290000 06004KT P6SM SCT040 BKN150
     FM290500 07006KT 6SM BR BKN020=

USA.gov is the U.S. government's official web portal to all federal, state and local government web resources and services.